sensor_id;sensor_type;location;lat;lon;timestamp;P1;durP1;ratioP1;P2;durP2;ratioP2
23088;SDS011;11713;48.506;8.966;2023-12-04T00:01:50;34.40;;;18.07;;
23088;SDS011;11713;48.506;8.966;2023-12-04T00:04:15;34.53;;;17.80;;
23088;SDS011;11713;48.506;8.966;2023-12-04T00:06:41;33.93;;;18.03;;
23088;SDS011;11713;48.506;8.966;2023-12-04T00:09:07;37.27;;;19.80;;
23088;SDS011;11713;48.506;8.966;2023-12-04T00:11:33;38.60;;;18.63;;
23088;SDS011;11713;48.506;8.966;2023-12-04T00:13:59;46.93;;;17.70;;
23088;SDS011;11713;48.506;8.966;2023-12-04T00:16:25;37.77;;;16.90;;
23088;SDS011;11713;48.506;8.966;2023-12-04T00:18:52;44.10;;;17.97;;
23088;SDS011;11713;48.506;8.966;2023-12-04T00:21:17;37.67;;;17.37;;
23088;SDS011;11713;48.506;8.966;2023-12-04T00:23:43;45.27;;;16.87;;
23088;SDS011;11713;48.506;8.966;2023-12-04T00:26:09;46.37;;;19.17;;
23088;SDS011;11713;48.506;8.966;2023-12-04T00:28:37;47.13;;;16.03;;
23088;SDS011;11713;48.506;8.966;2023-12-04T00:31:03;28.77;;;14.80;;
23088;SDS011;11713;48.506;8.966;2023-12-04T00:33:29;30.67;;;16.03;;
23088;SDS011;11713;48.506;8.966;2023-12-04T00:35:55;46.40;;;17.33;;
23088;SDS011;11713;48.506;8.966;2023-12-04T00:38:21;32.17;;;16.03;;
23088;SDS011;11713;48.506;8.966;2023-12-04T00:40:47;31.93;;;15.97;;
23088;SDS011;11713;48.506;8.966;2023-12-04T00:43:13;33.33;;;16.70;;
23088;SDS011;11713;48.506;8.966;2023-12-04T00:45:39;31.67;;;17.30;;
23088;SDS011;11713;48.506;8.966;2023-12-04T00:48:05;33.03;;;15.83;;
23088;SDS011;11713;48.506;8.966;2023-12-04T00:50:31;30.73;;;15.53;;
23088;SDS011;11713;48.506;8.966;2023-12-04T00:52:57;28.90;;;16.07;;
23088;SDS011;11713;48.506;8.966;2023-12-04T00:55:22;35.50;;;16.60;;
23088;SDS011;11713;48.506;8.966;2023-12-04T00:57:48;45.17;;;17.60;;
23088;SDS011;11713;48.506;8.966;2023-12-04T01:00:14;38.27;;;17.80;;
23088;SDS011;11713;48.506;8.966;2023-12-04T01:02:41;40.77;;;17.23;;
23088;SDS011;11713;48.506;8.966;2023-12-04T01:05:08;38.90;;;17.20;;
23088;SDS011;11713;48.506;8.966;2023-12-04T01:07:33;45.30;;;18.40;;
23088;SDS011;11713;48.506;8.966;2023-12-04T01:09:59;35.33;;;15.93;;
23088;SDS011;11713;48.506;8.966;2023-12-04T01:12:25;32.57;;;16.10;;
23088;SDS011;11713;48.506;8.966;2023-12-04T01:14:51;32.57;;;15.87;;
23088;SDS011;11713;48.506;8.966;2023-12-04T01:17:17;32.93;;;16.20;;
23088;SDS011;11713;48.506;8.966;2023-12-04T01:19:44;32.10;;;15.67;;
23088;SDS011;11713;48.506;8.966;2023-12-04T01:22:10;30.17;;;14.97;;
23088;SDS011;11713;48.506;8.966;2023-12-04T01:24:36;29.20;;;15.57;;
23088;SDS011;11713;48.506;8.966;2023-12-04T01:27:01;34.00;;;15.37;;
23088;SDS011;11713;48.506;8.966;2023-12-04T01:29:27;32.97;;;16.47;;
23088;SDS011;11713;48.506;8.966;2023-12-04T01:31:54;35.80;;;17.70;;
23088;SDS011;11713;48.506;8.966;2023-12-04T01:34:20;37.03;;;17.43;;
23088;SDS011;11713;48.506;8.966;2023-12-04T01:36:45;38.40;;;17.47;;
23088;SDS011;11713;48.506;8.966;2023-12-04T01:39:11;37.07;;;17.27;;
23088;SDS011;11713;48.506;8.966;2023-12-04T01:41:37;35.40;;;17.33;;
23088;SDS011;11713;48.506;8.966;2023-12-04T01:44:03;31.47;;;15.83;;
23088;SDS011;11713;48.506;8.966;2023-12-04T01:46:28;32.70;;;16.83;;
23088;SDS011;11713;48.506;8.966;2023-12-04T01:48:55;29.20;;;15.53;;
23088;SDS011;11713;48.506;8.966;2023-12-04T01:51:21;32.80;;;17.20;;
23088;SDS011;11713;48.506;8.966;2023-12-04T01:53:48;29.10;;;15.37;;
23088;SDS011;11713;48.506;8.966;2023-12-04T01:56:15;31.40;;;17.50;;
23088;SDS011;11713;48.506;8.966;2023-12-04T01:58:42;34.80;;;16.60;;
23088;SDS011;11713;48.506;8.966;2023-12-04T02:01:08;32.13;;;16.30;;
23088;SDS011;11713;48.506;8.966;2023-12-04T02:03:35;29.87;;;16.33;;
23088;SDS011;11713;48.506;8.966;2023-12-04T02:06:02;28.70;;;16.00;;
23088;SDS011;11713;48.506;8.966;2023-12-04T02:08:29;30.33;;;16.17;;
23088;SDS011;11713;48.506;8.966;2023-12-04T02:10:55;29.93;;;15.93;;
23088;SDS011;11713;48.506;8.966;2023-12-04T02:13:21;31.83;;;16.37;;
23088;SDS011;11713;48.506;8.966;2023-12-04T02:15:48;26.53;;;15.50;;
23088;SDS011;11713;48.506;8.966;2023-12-04T02:18:17;30.00;;;15.43;;
23088;SDS011;11713;48.506;8.966;2023-12-04T02:20:43;28.63;;;14.50;;
23088;SDS011;11713;48.506;8.966;2023-12-04T02:23:09;26.90;;;13.50;;
23088;SDS011;11713;48.506;8.966;2023-12-04T02:25:35;22.80;;;13.37;;
23088;SDS011;11713;48.506;8.966;2023-12-04T02:28:01;22.80;;;13.77;;
23088;SDS011;11713;48.506;8.966;2023-12-04T02:30:31;24.90;;;13.97;;
23088;SDS011;11713;48.506;8.966;2023-12-04T02:33:02;26.47;;;14.70;;
23088;SDS011;11713;48.506;8.966;2023-12-04T02:35:31;23.90;;;13.53;;
23088;SDS011;11713;48.506;8.966;2023-12-04T02:37:58;23.37;;;13.67;;
23088;SDS011;11713;48.506;8.966;2023-12-04T02:40:25;25.73;;;14.37;;
23088;SDS011;11713;48.506;8.966;2023-12-04T02:42:51;26.10;;;14.80;;
23088;SDS011;11713;48.506;8.966;2023-12-04T02:45:17;27.23;;;14.97;;
23088;SDS011;11713;48.506;8.966;2023-12-04T02:47:43;26.33;;;14.40;;
23088;SDS011;11713;48.506;8.966;2023-12-04T02:50:08;27.70;;;15.00;;
23088;SDS011;11713;48.506;8.966;2023-12-04T02:52:34;26.57;;;14.60;;
23088;SDS011;11713;48.506;8.966;2023-12-04T02:55:00;28.57;;;14.63;;
23088;SDS011;11713;48.506;8.966;2023-12-04T02:57:26;27.47;;;14.27;;
23088;SDS011;11713;48.506;8.966;2023-12-04T02:59:52;24.60;;;14.03;;
23088;SDS011;11713;48.506;8.966;2023-12-04T03:02:18;27.97;;;14.60;;
23088;SDS011;11713;48.506;8.966;2023-12-04T03:04:45;28.73;;;15.53;;
23088;SDS011;11713;48.506;8.966;2023-12-04T03:07:11;24.53;;;14.23;;
23088;SDS011;11713;48.506;8.966;2023-12-04T03:09:36;29.67;;;14.67;;
23088;SDS011;11713;48.506;8.966;2023-12-04T03:12:02;26.43;;;14.73;;
23088;SDS011;11713;48.506;8.966;2023-12-04T03:14:28;28.60;;;14.63;;
23088;SDS011;11713;48.506;8.966;2023-12-04T03:16:54;30.67;;;15.13;;
23088;SDS011;11713;48.506;8.966;2023-12-04T03:19:20;27.73;;;14.10;;
23088;SDS011;11713;48.506;8.966;2023-12-04T03:21:46;25.50;;;13.80;;
23088;SDS011;11713;48.506;8.966;2023-12-04T03:24:12;25.30;;;14.03;;
23088;SDS011;11713;48.506;8.966;2023-12-04T03:26:37;23.03;;;13.37;;
23088;SDS011;11713;48.506;8.966;2023-12-04T03:29:03;25.50;;;15.40;;
23088;SDS011;11713;48.506;8.966;2023-12-04T03:31:29;26.20;;;13.73;;
23088;SDS011;11713;48.506;8.966;2023-12-04T03:33:56;25.37;;;14.03;;
23088;SDS011;11713;48.506;8.966;2023-12-04T03:36:22;25.40;;;13.40;;
23088;SDS011;11713;48.506;8.966;2023-12-04T03:38:48;21.57;;;13.13;;
23088;SDS011;11713;48.506;8.966;2023-12-04T03:41:14;24.50;;;12.77;;
23088;SDS011;11713;48.506;8.966;2023-12-04T03:43:40;23.60;;;13.90;;
23088;SDS011;11713;48.506;8.966;2023-12-04T03:46:06;25.57;;;14.53;;
23088;SDS011;11713;48.506;8.966;2023-12-04T03:48:32;24.33;;;14.03;;
23088;SDS011;11713;48.506;8.966;2023-12-04T03:50:58;25.80;;;13.83;;
23088;SDS011;11713;48.506;8.966;2023-12-04T03:53:25;24.17;;;14.03;;
23088;SDS011;11713;48.506;8.966;2023-12-04T03:55:51;26.63;;;13.73;;
23088;SDS011;11713;48.506;8.966;2023-12-04T03:58:17;26.87;;;14.20;;
23088;SDS011;11713;48.506;8.966;2023-12-04T04:00:43;22.63;;;13.60;;
23088;SDS011;11713;48.506;8.966;2023-12-04T04:03:09;24.50;;;14.17;;
23088;SDS011;11713;48.506;8.966;2023-12-04T04:05:35;24.60;;;14.57;;
23088;SDS011;11713;48.506;8.966;2023-12-04T04:08:02;25.50;;;13.67;;
23088;SDS011;11713;48.506;8.966;2023-12-04T04:10:28;26.90;;;15.30;;
23088;SDS011;11713;48.506;8.966;2023-12-04T04:12:53;26.23;;;14.97;;
23088;SDS011;11713;48.506;8.966;2023-12-04T04:15:19;25.40;;;15.00;;
23088;SDS011;11713;48.506;8.966;2023-12-04T04:17:45;27.47;;;15.23;;
23088;SDS011;11713;48.506;8.966;2023-12-04T04:20:11;34.30;;;18.03;;
23088;SDS011;11713;48.506;8.966;2023-12-04T04:22:37;32.13;;;16.90;;
23088;SDS011;11713;48.506;8.966;2023-12-04T04:25:07;26.80;;;14.63;;
23088;SDS011;11713;48.506;8.966;2023-12-04T04:27:34;23.77;;;14.20;;
23088;SDS011;11713;48.506;8.966;2023-12-04T04:30:00;23.70;;;14.17;;
23088;SDS011;11713;48.506;8.966;2023-12-04T04:32:26;24.33;;;14.43;;
23088;SDS011;11713;48.506;8.966;2023-12-04T04:34:52;24.53;;;13.00;;
23088;SDS011;11713;48.506;8.966;2023-12-04T04:37:19;22.23;;;12.73;;
23088;SDS011;11713;48.506;8.966;2023-12-04T04:39:45;24.83;;;14.10;;
23088;SDS011;11713;48.506;8.966;2023-12-04T04:42:11;22.23;;;13.77;;
23088;SDS011;11713;48.506;8.966;2023-12-04T04:44:37;26.40;;;12.93;;
23088;SDS011;11713;48.506;8.966;2023-12-04T04:47:06;23.03;;;13.53;;
23088;SDS011;11713;48.506;8.966;2023-12-04T04:49:32;25.17;;;14.00;;
23088;SDS011;11713;48.506;8.966;2023-12-04T04:51:58;24.90;;;14.77;;
23088;SDS011;11713;48.506;8.966;2023-12-04T04:54:24;26.63;;;14.67;;
23088;SDS011;11713;48.506;8.966;2023-12-04T04:56:51;24.13;;;14.40;;
23088;SDS011;11713;48.506;8.966;2023-12-04T04:59:17;24.97;;;14.87;;
23088;SDS011;11713;48.506;8.966;2023-12-04T05:01:42;28.40;;;14.77;;
23088;SDS011;11713;48.506;8.966;2023-12-04T05:04:08;24.70;;;13.97;;
23088;SDS011;11713;48.506;8.966;2023-12-04T05:06:35;25.47;;;14.43;;
23088;SDS011;11713;48.506;8.966;2023-12-04T05:09:01;27.17;;;15.57;;
23088;SDS011;11713;48.506;8.966;2023-12-04T05:11:27;26.13;;;14.80;;
23088;SDS011;11713;48.506;8.966;2023-12-04T05:13:52;24.70;;;13.70;;
23088;SDS011;11713;48.506;8.966;2023-12-04T05:16:18;19.10;;;11.87;;
23088;SDS011;11713;48.506;8.966;2023-12-04T05:18:44;22.67;;;11.87;;
23088;SDS011;11713;48.506;8.966;2023-12-04T05:21:10;22.80;;;12.73;;
23088;SDS011;11713;48.506;8.966;2023-12-04T05:23:36;21.07;;;11.37;;
23088;SDS011;11713;48.506;8.966;2023-12-04T05:26:03;20.53;;;11.60;;
23088;SDS011;11713;48.506;8.966;2023-12-04T05:28:30;21.30;;;12.03;;
23088;SDS011;11713;48.506;8.966;2023-12-04T05:30:55;22.60;;;11.83;;
23088;SDS011;11713;48.506;8.966;2023-12-04T05:33:21;20.53;;;12.37;;
23088;SDS011;11713;48.506;8.966;2023-12-04T05:35:47;21.83;;;12.03;;
23088;SDS011;11713;48.506;8.966;2023-12-04T05:38:16;21.03;;;11.67;;
23088;SDS011;11713;48.506;8.966;2023-12-04T05:40:42;26.17;;;13.77;;
23088;SDS011;11713;48.506;8.966;2023-12-04T05:43:07;20.77;;;12.77;;
23088;SDS011;11713;48.506;8.966;2023-12-04T05:45:33;20.47;;;12.97;;
23088;SDS011;11713;48.506;8.966;2023-12-04T05:47:59;24.53;;;13.03;;
23088;SDS011;11713;48.506;8.966;2023-12-04T05:50:25;23.30;;;12.93;;
23088;SDS011;11713;48.506;8.966;2023-12-04T05:52:51;22.20;;;13.00;;
23088;SDS011;11713;48.506;8.966;2023-12-04T05:55:17;25.80;;;14.27;;
23088;SDS011;11713;48.506;8.966;2023-12-04T05:57:43;24.57;;;13.00;;
23088;SDS011;11713;48.506;8.966;2023-12-04T06:00:09;20.80;;;12.13;;
23088;SDS011;11713;48.506;8.966;2023-12-04T06:02:44;22.07;;;12.63;;
23088;SDS011;11713;48.506;8.966;2023-12-04T06:05:10;24.23;;;13.33;;
23088;SDS011;11713;48.506;8.966;2023-12-04T06:07:37;24.10;;;12.67;;
23088;SDS011;11713;48.506;8.966;2023-12-04T06:10:03;26.67;;;14.43;;
23088;SDS011;11713;48.506;8.966;2023-12-04T06:12:30;25.30;;;15.43;;
23088;SDS011;11713;48.506;8.966;2023-12-04T06:14:55;28.50;;;17.13;;
23088;SDS011;11713;48.506;8.966;2023-12-04T06:17:22;25.30;;;14.77;;
23088;SDS011;11713;48.506;8.966;2023-12-04T06:19:48;23.23;;;14.30;;
23088;SDS011;11713;48.506;8.966;2023-12-04T06:22:14;22.33;;;13.20;;
23088;SDS011;11713;48.506;8.966;2023-12-04T06:24:42;24.00;;;13.27;;
23088;SDS011;11713;48.506;8.966;2023-12-04T06:27:08;23.57;;;12.90;;
23088;SDS011;11713;48.506;8.966;2023-12-04T06:29:39;20.73;;;12.67;;
23088;SDS011;11713;48.506;8.966;2023-12-04T06:32:05;21.27;;;12.40;;
23088;SDS011;11713;48.506;8.966;2023-12-04T06:34:31;22.70;;;12.70;;
23088;SDS011;11713;48.506;8.966;2023-12-04T06:36:57;26.70;;;14.47;;
23088;SDS011;11713;48.506;8.966;2023-12-04T06:39:24;25.73;;;13.77;;
23088;SDS011;11713;48.506;8.966;2023-12-04T06:41:52;23.83;;;13.87;;
23088;SDS011;11713;48.506;8.966;2023-12-04T06:44:19;21.87;;;13.33;;
23088;SDS011;11713;48.506;8.966;2023-12-04T06:46:46;25.03;;;13.60;;
23088;SDS011;11713;48.506;8.966;2023-12-04T06:49:16;23.07;;;13.53;;
23088;SDS011;11713;48.506;8.966;2023-12-04T06:51:42;20.50;;;12.53;;
23088;SDS011;11713;48.506;8.966;2023-12-04T06:54:08;23.00;;;13.27;;
23088;SDS011;11713;48.506;8.966;2023-12-04T06:56:34;21.57;;;13.10;;
23088;SDS011;11713;48.506;8.966;2023-12-04T06:59:00;24.53;;;13.70;;
23088;SDS011;11713;48.506;8.966;2023-12-04T07:01:26;24.40;;;12.97;;
23088;SDS011;11713;48.506;8.966;2023-12-04T07:03:53;26.90;;;15.13;;
23088;SDS011;11713;48.506;8.966;2023-12-04T07:06:18;23.63;;;13.80;;
23088;SDS011;11713;48.506;8.966;2023-12-04T07:08:44;25.03;;;13.10;;
23088;SDS011;11713;48.506;8.966;2023-12-04T07:11:10;26.33;;;13.47;;
23088;SDS011;11713;48.506;8.966;2023-12-04T07:13:40;24.20;;;13.27;;
23088;SDS011;11713;48.506;8.966;2023-12-04T07:16:07;23.37;;;13.33;;
23088;SDS011;11713;48.506;8.966;2023-12-04T07:18:33;24.03;;;14.00;;
23088;SDS011;11713;48.506;8.966;2023-12-04T07:21:00;26.50;;;14.57;;
23088;SDS011;11713;48.506;8.966;2023-12-04T07:23:26;26.57;;;15.60;;
23088;SDS011;11713;48.506;8.966;2023-12-04T07:25:51;27.57;;;16.53;;
23088;SDS011;11713;48.506;8.966;2023-12-04T07:28:17;22.40;;;14.07;;
23088;SDS011;11713;48.506;8.966;2023-12-04T07:30:44;25.60;;;13.83;;
23088;SDS011;11713;48.506;8.966;2023-12-04T07:33:11;21.33;;;12.87;;
23088;SDS011;11713;48.506;8.966;2023-12-04T07:35:37;21.97;;;13.07;;
23088;SDS011;11713;48.506;8.966;2023-12-04T07:38:03;22.77;;;13.17;;
23088;SDS011;11713;48.506;8.966;2023-12-04T07:40:28;23.40;;;13.27;;
23088;SDS011;11713;48.506;8.966;2023-12-04T07:42:54;20.77;;;12.57;;
23088;SDS011;11713;48.506;8.966;2023-12-04T07:45:20;20.70;;;12.07;;
23088;SDS011;11713;48.506;8.966;2023-12-04T07:47:46;24.53;;;13.70;;
23088;SDS011;11713;48.506;8.966;2023-12-04T07:50:12;23.53;;;13.77;;
23088;SDS011;11713;48.506;8.966;2023-12-04T07:52:38;22.27;;;13.57;;
23088;SDS011;11713;48.506;8.966;2023-12-04T07:55:04;24.97;;;14.23;;
23088;SDS011;11713;48.506;8.966;2023-12-04T07:57:30;24.47;;;15.00;;
23088;SDS011;11713;48.506;8.966;2023-12-04T07:59:56;24.40;;;12.47;;
23088;SDS011;11713;48.506;8.966;2023-12-04T08:02:21;18.23;;;12.37;;
23088;SDS011;11713;48.506;8.966;2023-12-04T08:04:47;19.23;;;12.47;;
23088;SDS011;11713;48.506;8.966;2023-12-04T08:07:13;19.50;;;11.80;;
23088;SDS011;11713;48.506;8.966;2023-12-04T08:09:39;20.30;;;12.73;;
23088;SDS011;11713;48.506;8.966;2023-12-04T08:12:05;22.17;;;13.40;;
23088;SDS011;11713;48.506;8.966;2023-12-04T08:14:31;24.10;;;14.27;;
23088;SDS011;11713;48.506;8.966;2023-12-04T08:16:58;25.07;;;15.23;;
23088;SDS011;11713;48.506;8.966;2023-12-04T08:19:23;23.30;;;14.00;;
23088;SDS011;11713;48.506;8.966;2023-12-04T08:21:49;25.73;;;14.87;;
23088;SDS011;11713;48.506;8.966;2023-12-04T08:24:15;22.83;;;13.67;;
23088;SDS011;11713;48.506;8.966;2023-12-04T08:26:44;26.17;;;15.07;;
23088;SDS011;11713;48.506;8.966;2023-12-04T08:29:10;21.47;;;14.47;;
23088;SDS011;11713;48.506;8.966;2023-12-04T08:31:36;25.20;;;13.90;;
23088;SDS011;11713;48.506;8.966;2023-12-04T08:34:02;20.30;;;13.23;;
23088;SDS011;11713;48.506;8.966;2023-12-04T08:36:28;23.03;;;13.43;;
23088;SDS011;11713;48.506;8.966;2023-12-04T08:38:54;22.67;;;13.67;;
23088;SDS011;11713;48.506;8.966;2023-12-04T08:41:20;22.27;;;13.73;;
23088;SDS011;11713;48.506;8.966;2023-12-04T08:43:45;23.20;;;13.93;;
23088;SDS011;11713;48.506;8.966;2023-12-04T08:46:12;25.83;;;14.27;;
23088;SDS011;11713;48.506;8.966;2023-12-04T08:48:39;25.80;;;15.57;;
23088;SDS011;11713;48.506;8.966;2023-12-04T08:51:08;26.10;;;14.93;;
23088;SDS011;11713;48.506;8.966;2023-12-04T08:53:40;23.67;;;14.43;;
23088;SDS011;11713;48.506;8.966;2023-12-04T08:56:06;24.47;;;13.60;;
23088;SDS011;11713;48.506;8.966;2023-12-04T08:58:32;24.93;;;14.20;;
23088;SDS011;11713;48.506;8.966;2023-12-04T09:00:58;23.43;;;14.10;;
23088;SDS011;11713;48.506;8.966;2023-12-04T09:03:23;21.50;;;13.43;;
23088;SDS011;11713;48.506;8.966;2023-12-04T09:05:49;24.60;;;13.53;;
23088;SDS011;11713;48.506;8.966;2023-12-04T09:08:17;22.30;;;12.47;;
23088;SDS011;11713;48.506;8.966;2023-12-04T09:10:46;23.70;;;13.87;;
23088;SDS011;11713;48.506;8.966;2023-12-04T09:13:13;22.80;;;14.13;;
23088;SDS011;11713;48.506;8.966;2023-12-04T09:15:39;22.90;;;14.80;;
23088;SDS011;11713;48.506;8.966;2023-12-04T09:18:05;20.87;;;14.30;;
23088;SDS011;11713;48.506;8.966;2023-12-04T09:20:31;25.57;;;13.83;;
23088;SDS011;11713;48.506;8.966;2023-12-04T09:22:57;25.63;;;14.53;;
23088;SDS011;11713;48.506;8.966;2023-12-04T09:25:22;24.07;;;13.87;;
23088;SDS011;11713;48.506;8.966;2023-12-04T09:27:48;22.67;;;13.13;;
23088;SDS011;11713;48.506;8.966;2023-12-04T09:30:14;20.03;;;12.37;;
23088;SDS011;11713;48.506;8.966;2023-12-04T09:32:40;23.47;;;13.43;;
23088;SDS011;11713;48.506;8.966;2023-12-04T09:35:06;24.53;;;14.30;;
23088;SDS011;11713;48.506;8.966;2023-12-04T09:37:32;30.67;;;14.93;;
23088;SDS011;11713;48.506;8.966;2023-12-04T09:39:58;30.53;;;16.43;;
23088;SDS011;11713;48.506;8.966;2023-12-04T09:42:24;21.20;;;13.17;;
23088;SDS011;11713;48.506;8.966;2023-12-04T09:44:50;20.77;;;13.17;;
23088;SDS011;11713;48.506;8.966;2023-12-04T09:47:18;21.23;;;12.83;;
23088;SDS011;11713;48.506;8.966;2023-12-04T09:49:44;23.63;;;13.50;;
23088;SDS011;11713;48.506;8.966;2023-12-04T09:52:10;19.63;;;12.23;;
23088;SDS011;11713;48.506;8.966;2023-12-04T09:54:36;19.50;;;11.87;;
23088;SDS011;11713;48.506;8.966;2023-12-04T09:57:08;22.30;;;13.10;;
23088;SDS011;11713;48.506;8.966;2023-12-04T09:59:34;18.20;;;12.07;;
23088;SDS011;11713;48.506;8.966;2023-12-04T10:02:01;18.17;;;11.20;;
23088;SDS011;11713;48.506;8.966;2023-12-04T10:04:27;20.47;;;12.00;;
23088;SDS011;11713;48.506;8.966;2023-12-04T10:06:52;20.70;;;12.13;;
23088;SDS011;11713;48.506;8.966;2023-12-04T10:09:19;19.73;;;11.93;;
23088;SDS011;11713;48.506;8.966;2023-12-04T10:11:47;18.47;;;11.07;;
23088;SDS011;11713;48.506;8.966;2023-12-04T10:14:18;18.10;;;11.60;;
23088;SDS011;11713;48.506;8.966;2023-12-04T10:16:45;23.20;;;12.40;;
23088;SDS011;11713;48.506;8.966;2023-12-04T10:19:18;21.47;;;12.30;;
23088;SDS011;11713;48.506;8.966;2023-12-04T10:21:53;21.13;;;12.67;;
23088;SDS011;11713;48.506;8.966;2023-12-04T10:24:36;23.00;;;13.20;;
23088;SDS011;11713;48.506;8.966;2023-12-04T10:27:06;20.17;;;12.53;;
23088;SDS011;11713;48.506;8.966;2023-12-04T10:29:47;19.17;;;11.77;;
23088;SDS011;11713;48.506;8.966;2023-12-04T10:32:20;21.50;;;15.13;;
23088;SDS011;11713;48.506;8.966;2023-12-04T10:34:46;24.77;;;15.07;;
23088;SDS011;11713;48.506;8.966;2023-12-04T10:37:12;21.50;;;13.33;;
23088;SDS011;11713;48.506;8.966;2023-12-04T10:39:46;21.40;;;12.53;;
23088;SDS011;11713;48.506;8.966;2023-12-04T10:42:37;20.63;;;13.00;;
23088;SDS011;11713;48.506;8.966;2023-12-04T10:45:02;19.03;;;11.93;;
23088;SDS011;11713;48.506;8.966;2023-12-04T10:47:30;21.87;;;13.80;;
23088;SDS011;11713;48.506;8.966;2023-12-04T10:49:56;17.53;;;12.17;;
23088;SDS011;11713;48.506;8.966;2023-12-04T10:52:22;18.80;;;11.77;;
23088;SDS011;11713;48.506;8.966;2023-12-04T10:54:48;20.23;;;11.97;;
23088;SDS011;11713;48.506;8.966;2023-12-04T10:57:27;16.33;;;10.83;;
23088;SDS011;11713;48.506;8.966;2023-12-04T11:00:04;16.27;;;10.70;;
23088;SDS011;11713;48.506;8.966;2023-12-04T11:02:34;19.60;;;12.80;;
23088;SDS011;11713;48.506;8.966;2023-12-04T11:05:01;19.53;;;12.67;;
23088;SDS011;11713;48.506;8.966;2023-12-04T11:07:39;19.37;;;12.47;;
23088;SDS011;11713;48.506;8.966;2023-12-04T11:10:09;17.33;;;11.43;;
23088;SDS011;11713;48.506;8.966;2023-12-04T11:12:36;18.83;;;11.53;;
23088;SDS011;11713;48.506;8.966;2023-12-04T11:15:09;17.00;;;10.97;;
23088;SDS011;11713;48.506;8.966;2023-12-04T11:17:39;16.87;;;10.97;;
23088;SDS011;11713;48.506;8.966;2023-12-04T11:20:12;16.07;;;10.67;;
23088;SDS011;11713;48.506;8.966;2023-12-04T11:22:42;16.87;;;11.30;;
23088;SDS011;11713;48.506;8.966;2023-12-04T11:25:10;18.30;;;11.53;;
23088;SDS011;11713;48.506;8.966;2023-12-04T11:27:38;16.73;;;11.37;;
23088;SDS011;11713;48.506;8.966;2023-12-04T11:30:06;17.73;;;12.07;;
23088;SDS011;11713;48.506;8.966;2023-12-04T11:32:42;18.60;;;12.37;;
23088;SDS011;11713;48.506;8.966;2023-12-04T11:35:13;18.97;;;11.80;;
23088;SDS011;11713;48.506;8.966;2023-12-04T11:37:41;17.50;;;11.90;;
23088;SDS011;11713;48.506;8.966;2023-12-04T11:40:10;18.90;;;12.53;;
23088;SDS011;11713;48.506;8.966;2023-12-04T11:42:38;17.23;;;11.50;;
23088;SDS011;11713;48.506;8.966;2023-12-04T11:45:04;20.37;;;12.97;;
23088;SDS011;11713;48.506;8.966;2023-12-04T11:47:35;22.20;;;15.80;;
23088;SDS011;11713;48.506;8.966;2023-12-04T11:50:21;24.70;;;14.80;;
23088;SDS011;11713;48.506;8.966;2023-12-04T11:52:49;24.67;;;16.20;;
23088;SDS011;11713;48.506;8.966;2023-12-04T11:55:15;24.60;;;15.47;;
23088;SDS011;11713;48.506;8.966;2023-12-04T11:57:42;23.47;;;14.73;;
23088;SDS011;11713;48.506;8.966;2023-12-04T12:00:09;21.70;;;14.17;;
23088;SDS011;11713;48.506;8.966;2023-12-04T12:05:27;23.07;;;13.63;;
23088;SDS011;11713;48.506;8.966;2023-12-04T12:07:54;21.90;;;15.30;;
23088;SDS011;11713;48.506;8.966;2023-12-04T12:10:21;24.00;;;15.67;;
23088;SDS011;11713;48.506;8.966;2023-12-04T12:12:47;21.37;;;14.53;;
23088;SDS011;11713;48.506;8.966;2023-12-04T12:15:13;21.23;;;14.60;;
23088;SDS011;11713;48.506;8.966;2023-12-04T12:17:40;21.23;;;13.60;;
23088;SDS011;11713;48.506;8.966;2023-12-04T12:20:08;20.63;;;14.03;;
23088;SDS011;11713;48.506;8.966;2023-12-04T12:22:35;19.67;;;13.57;;
23088;SDS011;11713;48.506;8.966;2023-12-04T12:25:09;19.13;;;13.93;;
23088;SDS011;11713;48.506;8.966;2023-12-04T12:27:36;19.53;;;13.53;;
23088;SDS011;11713;48.506;8.966;2023-12-04T12:30:06;18.47;;;13.10;;
23088;SDS011;11713;48.506;8.966;2023-12-04T12:32:33;17.80;;;11.70;;
23088;SDS011;11713;48.506;8.966;2023-12-04T12:34:59;19.20;;;12.70;;
23088;SDS011;11713;48.506;8.966;2023-12-04T12:37:25;18.40;;;12.43;;
23088;SDS011;11713;48.506;8.966;2023-12-04T12:39:51;19.53;;;13.03;;
23088;SDS011;11713;48.506;8.966;2023-12-04T12:42:21;21.80;;;12.47;;
23088;SDS011;11713;48.506;8.966;2023-12-04T12:44:48;18.87;;;12.40;;
23088;SDS011;11713;48.506;8.966;2023-12-04T12:47:16;18.83;;;11.70;;
23088;SDS011;11713;48.506;8.966;2023-12-04T12:49:43;18.23;;;12.27;;
23088;SDS011;11713;48.506;8.966;2023-12-04T12:52:09;16.50;;;11.70;;
23088;SDS011;11713;48.506;8.966;2023-12-04T12:54:39;18.67;;;12.47;;
23088;SDS011;11713;48.506;8.966;2023-12-04T12:57:06;25.13;;;16.17;;
23088;SDS011;11713;48.506;8.966;2023-12-04T12:59:32;19.40;;;13.20;;
23088;SDS011;11713;48.506;8.966;2023-12-04T13:01:58;23.33;;;15.43;;
23088;SDS011;11713;48.506;8.966;2023-12-04T13:04:37;20.90;;;13.60;;
23088;SDS011;11713;48.506;8.966;2023-12-04T13:07:05;28.33;;;16.83;;
23088;SDS011;11713;48.506;8.966;2023-12-04T13:09:35;22.33;;;14.57;;
23088;SDS011;11713;48.506;8.966;2023-12-04T13:12:01;21.63;;;15.30;;
23088;SDS011;11713;48.506;8.966;2023-12-04T13:14:29;22.10;;;14.30;;
23088;SDS011;11713;48.506;8.966;2023-12-04T13:16:55;21.27;;;13.33;;
23088;SDS011;11713;48.506;8.966;2023-12-04T13:19:22;19.43;;;13.63;;
23088;SDS011;11713;48.506;8.966;2023-12-04T13:21:48;17.60;;;12.23;;
23088;SDS011;11713;48.506;8.966;2023-12-04T13:24:14;21.70;;;14.20;;
23088;SDS011;11713;48.506;8.966;2023-12-04T13:26:41;19.30;;;13.97;;
23088;SDS011;11713;48.506;8.966;2023-12-04T13:29:07;20.97;;;14.87;;
23088;SDS011;11713;48.506;8.966;2023-12-04T13:31:33;23.63;;;14.47;;
23088;SDS011;11713;48.506;8.966;2023-12-04T13:33:59;23.90;;;15.40;;
23088;SDS011;11713;48.506;8.966;2023-12-04T13:36:25;24.07;;;15.53;;
23088;SDS011;11713;48.506;8.966;2023-12-04T13:38:52;28.47;;;19.07;;
23088;SDS011;11713;48.506;8.966;2023-12-04T13:41:19;22.93;;;16.30;;
23088;SDS011;11713;48.506;8.966;2023-12-04T13:44:03;21.17;;;14.50;;
23088;SDS011;11713;48.506;8.966;2023-12-04T13:46:29;23.30;;;15.03;;
23088;SDS011;11713;48.506;8.966;2023-12-04T13:48:58;21.80;;;14.83;;
23088;SDS011;11713;48.506;8.966;2023-12-04T13:51:24;23.60;;;14.83;;
23088;SDS011;11713;48.506;8.966;2023-12-04T13:53:52;21.33;;;15.27;;
23088;SDS011;11713;48.506;8.966;2023-12-04T13:56:22;21.13;;;14.30;;
23088;SDS011;11713;48.506;8.966;2023-12-04T13:58:48;23.30;;;15.43;;
23088;SDS011;11713;48.506;8.966;2023-12-04T14:01:23;21.07;;;13.73;;
23088;SDS011;11713;48.506;8.966;2023-12-04T14:03:52;22.20;;;14.77;;
23088;SDS011;11713;48.506;8.966;2023-12-04T14:06:18;23.83;;;15.57;;
23088;SDS011;11713;48.506;8.966;2023-12-04T14:08:44;25.80;;;16.17;;
23088;SDS011;11713;48.506;8.966;2023-12-04T14:11:11;23.43;;;15.13;;
23088;SDS011;11713;48.506;8.966;2023-12-04T14:13:39;23.13;;;14.57;;
23088;SDS011;11713;48.506;8.966;2023-12-04T14:16:05;22.10;;;14.93;;
23088;SDS011;11713;48.506;8.966;2023-12-04T14:18:31;22.83;;;15.60;;
23088;SDS011;11713;48.506;8.966;2023-12-04T14:20:57;21.30;;;14.50;;
23088;SDS011;11713;48.506;8.966;2023-12-04T14:23:23;21.17;;;13.93;;